sensor_id;sensor_type;location;lat;lon;timestamp;P1;durP1;ratioP1;P2;durP2;ratioP2
9449;SDS011;4763;48.370;10.874;2023-08-01T00:01:20;4.20;;;2.90;;
9449;SDS011;4763;48.370;10.874;2023-08-01T00:03:48;3.70;;;2.80;;
9449;SDS011;4763;48.370;10.874;2023-08-01T00:06:15;7.27;;;2.97;;
9449;SDS011;4763;48.370;10.874;2023-08-01T00:08:44;4.07;;;2.90;;
9449;SDS011;4763;48.370;10.874;2023-08-01T00:11:11;6.50;;;2.73;;
9449;SDS011;4763;48.370;10.874;2023-08-01T00:13:39;3.77;;;2.40;;
9449;SDS011;4763;48.370;10.874;2023-08-01T00:16:06;6.10;;;2.80;;
9449;SDS011;4763;48.370;10.874;2023-08-01T00:18:32;3.73;;;2.40;;
9449;SDS011;4763;48.370;10.874;2023-08-01T00:21:02;4.67;;;2.70;;
9449;SDS011;4763;48.370;10.874;2023-08-01T00:23:30;6.77;;;2.60;;
9449;SDS011;4763;48.370;10.874;2023-08-01T00:25:57;5.43;;;3.27;;
9449;SDS011;4763;48.370;10.874;2023-08-01T00:28:23;7.03;;;3.17;;
9449;SDS011;4763;48.370;10.874;2023-08-01T00:31:00;3.73;;;2.47;;
9449;SDS011;4763;48.370;10.874;2023-08-01T00:33:28;6.97;;;2.90;;
9449;SDS011;4763;48.370;10.874;2023-08-01T00:35:55;8.70;;;2.90;;
9449;SDS011;4763;48.370;10.874;2023-08-01T00:38:23;5.90;;;2.93;;
9449;SDS011;4763;48.370;10.874;2023-08-01T00:40:49;5.53;;;2.53;;
9449;SDS011;4763;48.370;10.874;2023-08-01T00:43:16;5.97;;;2.50;;
9449;SDS011;4763;48.370;10.874;2023-08-01T00:45:43;4.57;;;2.70;;
9449;SDS011;4763;48.370;10.874;2023-08-01T00:48:11;7.03;;;2.60;;
9449;SDS011;4763;48.370;10.874;2023-08-01T00:50:38;5.10;;;3.33;;
9449;SDS011;4763;48.370;10.874;2023-08-01T00:53:06;7.07;;;2.40;;
9449;SDS011;4763;48.370;10.874;2023-08-01T00:55:34;7.27;;;2.60;;
9449;SDS011;4763;48.370;10.874;2023-08-01T00:58:02;3.70;;;2.50;;
9449;SDS011;4763;48.370;10.874;2023-08-01T01:00:29;5.20;;;2.70;;
9449;SDS011;4763;48.370;10.874;2023-08-01T01:02:56;3.40;;;2.40;;
9449;SDS011;4763;48.370;10.874;2023-08-01T01:05:23;3.13;;;2.40;;
9449;SDS011;4763;48.370;10.874;2023-08-01T01:07:51;5.20;;;3.23;;
9449;SDS011;4763;48.370;10.874;2023-08-01T01:10:18;4.77;;;2.50;;
9449;SDS011;4763;48.370;10.874;2023-08-01T01:12:47;4.17;;;2.47;;
9449;SDS011;4763;48.370;10.874;2023-08-01T01:15:15;6.80;;;3.10;;
9449;SDS011;4763;48.370;10.874;2023-08-01T01:17:42;4.60;;;2.47;;
9449;SDS011;4763;48.370;10.874;2023-08-01T01:20:09;4.30;;;2.60;;
9449;SDS011;4763;48.370;10.874;2023-08-01T01:22:37;5.73;;;2.60;;
9449;SDS011;4763;48.370;10.874;2023-08-01T01:25:06;5.63;;;2.77;;
9449;SDS011;4763;48.370;10.874;2023-08-01T01:27:35;3.73;;;2.60;;
9449;SDS011;4763;48.370;10.874;2023-08-01T01:30:05;6.03;;;3.40;;
9449;SDS011;4763;48.370;10.874;2023-08-01T01:32:33;3.00;;;2.50;;
9449;SDS011;4763;48.370;10.874;2023-08-01T01:35:03;2.87;;;2.53;;
9449;SDS011;4763;48.370;10.874;2023-08-01T01:37:30;3.63;;;2.47;;
9449;SDS011;4763;48.370;10.874;2023-08-01T01:40:00;4.27;;;2.63;;
9449;SDS011;4763;48.370;10.874;2023-08-01T01:42:27;5.30;;;2.40;;
9449;SDS011;4763;48.370;10.874;2023-08-01T01:44:54;4.60;;;2.80;;
9449;SDS011;4763;48.370;10.874;2023-08-01T01:47:20;3.00;;;2.43;;
9449;SDS011;4763;48.370;10.874;2023-08-01T01:49:47;5.53;;;2.30;;
9449;SDS011;4763;48.370;10.874;2023-08-01T01:52:15;5.83;;;2.53;;
9449;SDS011;4763;48.370;10.874;2023-08-01T01:54:42;4.27;;;2.43;;
9449;SDS011;4763;48.370;10.874;2023-08-01T01:57:10;3.80;;;2.47;;
9449;SDS011;4763;48.370;10.874;2023-08-01T01:59:38;3.80;;;2.50;;
9449;SDS011;4763;48.370;10.874;2023-08-01T02:02:05;2.77;;;2.03;;
9449;SDS011;4763;48.370;10.874;2023-08-01T02:04:32;3.77;;;2.60;;
9449;SDS011;4763;48.370;10.874;2023-08-01T02:06:59;4.33;;;2.83;;
9449;SDS011;4763;48.370;10.874;2023-08-01T02:09:26;5.17;;;3.13;;
9449;SDS011;4763;48.370;10.874;2023-08-01T02:11:52;4.93;;;2.47;;
9449;SDS011;4763;48.370;10.874;2023-08-01T02:14:21;5.60;;;2.87;;
9449;SDS011;4763;48.370;10.874;2023-08-01T02:16:47;4.67;;;2.80;;
9449;SDS011;4763;48.370;10.874;2023-08-01T02:19:14;4.27;;;2.97;;
9449;SDS011;4763;48.370;10.874;2023-08-01T02:21:41;5.77;;;2.57;;
9449;SDS011;4763;48.370;10.874;2023-08-01T02:24:07;5.70;;;2.80;;
9449;SDS011;4763;48.370;10.874;2023-08-01T02:26:34;5.47;;;3.13;;
9449;SDS011;4763;48.370;10.874;2023-08-01T02:29:01;8.87;;;3.17;;
9449;SDS011;4763;48.370;10.874;2023-08-01T02:31:29;3.23;;;2.50;;
9449;SDS011;4763;48.370;10.874;2023-08-01T02:33:56;4.43;;;2.67;;
9449;SDS011;4763;48.370;10.874;2023-08-01T02:36:22;5.27;;;2.93;;
9449;SDS011;4763;48.370;10.874;2023-08-01T02:38:49;2.93;;;2.10;;
9449;SDS011;4763;48.370;10.874;2023-08-01T02:41:16;5.67;;;2.80;;
9449;SDS011;4763;48.370;10.874;2023-08-01T02:43:43;2.83;;;2.20;;
9449;SDS011;4763;48.370;10.874;2023-08-01T02:46:09;4.93;;;2.50;;
9449;SDS011;4763;48.370;10.874;2023-08-01T02:48:37;5.20;;;2.60;;
9449;SDS011;4763;48.370;10.874;2023-08-01T02:51:06;6.13;;;2.50;;
9449;SDS011;4763;48.370;10.874;2023-08-01T02:53:34;6.00;;;2.60;;
9449;SDS011;4763;48.370;10.874;2023-08-01T02:56:01;5.57;;;2.67;;
9449;SDS011;4763;48.370;10.874;2023-08-01T02:58:28;3.57;;;2.83;;
9449;SDS011;4763;48.370;10.874;2023-08-01T03:00:55;6.57;;;3.00;;
9449;SDS011;4763;48.370;10.874;2023-08-01T03:03:24;9.50;;;2.80;;
9449;SDS011;4763;48.370;10.874;2023-08-01T03:05:53;3.50;;;2.80;;
9449;SDS011;4763;48.370;10.874;2023-08-01T03:08:19;3.50;;;2.70;;
9449;SDS011;4763;48.370;10.874;2023-08-01T03:10:48;5.13;;;3.17;;
9449;SDS011;4763;48.370;10.874;2023-08-01T03:13:15;3.60;;;2.67;;
9449;SDS011;4763;48.370;10.874;2023-08-01T03:15:42;2.57;;;2.37;;
9449;SDS011;4763;48.370;10.874;2023-08-01T03:18:09;4.37;;;2.40;;
9449;SDS011;4763;48.370;10.874;2023-08-01T03:20:37;3.60;;;2.60;;
9449;SDS011;4763;48.370;10.874;2023-08-01T03:23:06;6.37;;;3.27;;
9449;SDS011;4763;48.370;10.874;2023-08-01T03:25:33;6.10;;;3.30;;
9449;SDS011;4763;48.370;10.874;2023-08-01T03:28:00;3.87;;;2.80;;
9449;SDS011;4763;48.370;10.874;2023-08-01T03:30:26;6.37;;;3.67;;
9449;SDS011;4763;48.370;10.874;2023-08-01T03:32:53;4.77;;;3.23;;
9449;SDS011;4763;48.370;10.874;2023-08-01T03:35:20;7.53;;;2.83;;
9449;SDS011;4763;48.370;10.874;2023-08-01T03:37:48;13.17;;;4.13;;
9449;SDS011;4763;48.370;10.874;2023-08-01T03:40:17;2.93;;;2.37;;
9449;SDS011;4763;48.370;10.874;2023-08-01T03:42:44;5.40;;;2.87;;
9449;SDS011;4763;48.370;10.874;2023-08-01T03:45:13;4.53;;;3.20;;
9449;SDS011;4763;48.370;10.874;2023-08-01T03:47:40;4.80;;;3.00;;
9449;SDS011;4763;48.370;10.874;2023-08-01T03:50:07;4.87;;;3.50;;
9449;SDS011;4763;48.370;10.874;2023-08-01T03:52:34;4.13;;;3.20;;
9449;SDS011;4763;48.370;10.874;2023-08-01T03:55:01;4.10;;;3.30;;
9449;SDS011;4763;48.370;10.874;2023-08-01T03:57:30;4.13;;;2.80;;
9449;SDS011;4763;48.370;10.874;2023-08-01T03:59:58;10.07;;;3.23;;
9449;SDS011;4763;48.370;10.874;2023-08-01T04:02:25;6.10;;;3.30;;
9449;SDS011;4763;48.370;10.874;2023-08-01T04:04:52;4.43;;;3.20;;
9449;SDS011;4763;48.370;10.874;2023-08-01T04:07:19;5.33;;;3.40;;
9449;SDS011;4763;48.370;10.874;2023-08-01T04:09:46;5.20;;;3.50;;
9449;SDS011;4763;48.370;10.874;2023-08-01T04:12:13;5.43;;;3.37;;
9449;SDS011;4763;48.370;10.874;2023-08-01T04:14:41;4.77;;;3.33;;
9449;SDS011;4763;48.370;10.874;2023-08-01T04:17:08;5.13;;;3.20;;
9449;SDS011;4763;48.370;10.874;2023-08-01T04:19:35;7.20;;;3.87;;
9449;SDS011;4763;48.370;10.874;2023-08-01T04:22:02;4.87;;;3.07;;
9449;SDS011;4763;48.370;10.874;2023-08-01T04:24:29;3.90;;;2.90;;
9449;SDS011;4763;48.370;10.874;2023-08-01T04:26:56;4.50;;;3.00;;
9449;SDS011;4763;48.370;10.874;2023-08-01T04:29:23;7.23;;;3.73;;
9449;SDS011;4763;48.370;10.874;2023-08-01T04:31:51;6.00;;;3.40;;
9449;SDS011;4763;48.370;10.874;2023-08-01T04:34:18;4.93;;;3.70;;
9449;SDS011;4763;48.370;10.874;2023-08-01T04:36:45;4.13;;;3.17;;
9449;SDS011;4763;48.370;10.874;2023-08-01T04:39:11;6.80;;;3.57;;
9449;SDS011;4763;48.370;10.874;2023-08-01T04:41:38;7.37;;;3.50;;
9449;SDS011;4763;48.370;10.874;2023-08-01T04:44:05;4.63;;;3.50;;
9449;SDS011;4763;48.370;10.874;2023-08-01T04:46:32;4.50;;;3.20;;
9449;SDS011;4763;48.370;10.874;2023-08-01T04:49:02;6.73;;;3.40;;
9449;SDS011;4763;48.370;10.874;2023-08-01T04:51:29;8.00;;;3.37;;
9449;SDS011;4763;48.370;10.874;2023-08-01T04:53:56;5.70;;;3.60;;
9449;SDS011;4763;48.370;10.874;2023-08-01T04:56:23;9.43;;;4.03;;
9449;SDS011;4763;48.370;10.874;2023-08-01T04:58:50;7.30;;;3.83;;
9449;SDS011;4763;48.370;10.874;2023-08-01T05:01:19;4.73;;;3.20;;
9449;SDS011;4763;48.370;10.874;2023-08-01T05:03:46;6.43;;;2.80;;
9449;SDS011;4763;48.370;10.874;2023-08-01T05:06:14;6.40;;;3.73;;
9449;SDS011;4763;48.370;10.874;2023-08-01T05:08:41;6.47;;;4.07;;
9449;SDS011;4763;48.370;10.874;2023-08-01T05:11:09;6.23;;;3.47;;
9449;SDS011;4763;48.370;10.874;2023-08-01T05:13:36;5.63;;;3.43;;
9449;SDS011;4763;48.370;10.874;2023-08-01T05:16:03;6.00;;;4.10;;
9449;SDS011;4763;48.370;10.874;2023-08-01T05:18:30;5.47;;;3.57;;
9449;SDS011;4763;48.370;10.874;2023-08-01T05:20:57;5.57;;;3.07;;
9449;SDS011;4763;48.370;10.874;2023-08-01T05:23:25;4.73;;;3.30;;
9449;SDS011;4763;48.370;10.874;2023-08-01T05:25:53;6.37;;;3.67;;
9449;SDS011;4763;48.370;10.874;2023-08-01T05:28:19;6.27;;;3.10;;
9449;SDS011;4763;48.370;10.874;2023-08-01T05:30:46;5.87;;;3.60;;
9449;SDS011;4763;48.370;10.874;2023-08-01T05:33:13;6.10;;;3.50;;
9449;SDS011;4763;48.370;10.874;2023-08-01T05:35:40;7.37;;;3.40;;
9449;SDS011;4763;48.370;10.874;2023-08-01T05:38:07;5.77;;;4.20;;
9449;SDS011;4763;48.370;10.874;2023-08-01T05:40:35;5.43;;;3.60;;
9449;SDS011;4763;48.370;10.874;2023-08-01T05:43:02;7.80;;;3.70;;
9449;SDS011;4763;48.370;10.874;2023-08-01T05:45:29;4.57;;;3.20;;
9449;SDS011;4763;48.370;10.874;2023-08-01T05:47:56;3.40;;;2.60;;
9449;SDS011;4763;48.370;10.874;2023-08-01T05:50:23;6.00;;;3.70;;
9449;SDS011;4763;48.370;10.874;2023-08-01T05:52:51;7.97;;;4.10;;
9449;SDS011;4763;48.370;10.874;2023-08-01T05:55:18;5.40;;;3.53;;
9449;SDS011;4763;48.370;10.874;2023-08-01T05:57:50;6.37;;;3.53;;
9449;SDS011;4763;48.370;10.874;2023-08-01T06:00:18;4.50;;;3.33;;
9449;SDS011;4763;48.370;10.874;2023-08-01T06:02:45;6.73;;;3.03;;
9449;SDS011;4763;48.370;10.874;2023-08-01T06:05:12;4.37;;;3.57;;
9449;SDS011;4763;48.370;10.874;2023-08-01T06:07:39;7.50;;;4.00;;
9449;SDS011;4763;48.370;10.874;2023-08-01T06:10:06;6.20;;;3.30;;
9449;SDS011;4763;48.370;10.874;2023-08-01T06:12:34;6.13;;;3.50;;
9449;SDS011;4763;48.370;10.874;2023-08-01T06:15:02;4.80;;;3.27;;
9449;SDS011;4763;48.370;10.874;2023-08-01T06:17:30;7.13;;;3.40;;
9449;SDS011;4763;48.370;10.874;2023-08-01T06:19:57;6.83;;;3.17;;
9449;SDS011;4763;48.370;10.874;2023-08-01T06:22:23;4.27;;;3.07;;
9449;SDS011;4763;48.370;10.874;2023-08-01T06:24:50;5.47;;;3.40;;
9449;SDS011;4763;48.370;10.874;2023-08-01T06:27:17;5.63;;;2.97;;
9449;SDS011;4763;48.370;10.874;2023-08-01T06:29:44;5.43;;;3.33;;
9449;SDS011;4763;48.370;10.874;2023-08-01T06:32:12;4.07;;;3.00;;
9449;SDS011;4763;48.370;10.874;2023-08-01T06:34:38;5.13;;;3.10;;
9449;SDS011;4763;48.370;10.874;2023-08-01T06:37:05;6.03;;;3.50;;
9449;SDS011;4763;48.370;10.874;2023-08-01T06:39:32;5.03;;;3.50;;
9449;SDS011;4763;48.370;10.874;2023-08-01T06:41:59;6.70;;;3.10;;
9449;SDS011;4763;48.370;10.874;2023-08-01T06:44:25;4.93;;;3.20;;
9449;SDS011;4763;48.370;10.874;2023-08-01T06:46:52;5.43;;;3.30;;
9449;SDS011;4763;48.370;10.874;2023-08-01T06:49:20;4.53;;;3.33;;
9449;SDS011;4763;48.370;10.874;2023-08-01T06:51:47;3.27;;;2.70;;
9449;SDS011;4763;48.370;10.874;2023-08-01T06:54:14;5.20;;;3.10;;
9449;SDS011;4763;48.370;10.874;2023-08-01T06:56:41;4.63;;;2.87;;
9449;SDS011;4763;48.370;10.874;2023-08-01T06:59:12;5.00;;;3.00;;
9449;SDS011;4763;48.370;10.874;2023-08-01T07:01:39;3.37;;;2.63;;
9449;SDS011;4763;48.370;10.874;2023-08-01T07:04:08;8.07;;;3.20;;
9449;SDS011;4763;48.370;10.874;2023-08-01T07:06:36;3.80;;;3.20;;
9449;SDS011;4763;48.370;10.874;2023-08-01T07:09:03;4.97;;;2.80;;
9449;SDS011;4763;48.370;10.874;2023-08-01T07:11:30;4.07;;;2.87;;
9449;SDS011;4763;48.370;10.874;2023-08-01T07:13:56;4.77;;;3.13;;
9449;SDS011;4763;48.370;10.874;2023-08-01T07:16:23;3.63;;;2.40;;
9449;SDS011;4763;48.370;10.874;2023-08-01T07:18:50;4.43;;;2.90;;
9449;SDS011;4763;48.370;10.874;2023-08-01T07:21:17;7.70;;;3.03;;
9449;SDS011;4763;48.370;10.874;2023-08-01T07:23:45;4.17;;;3.10;;
9449;SDS011;4763;48.370;10.874;2023-08-01T07:26:13;4.80;;;3.00;;
9449;SDS011;4763;48.370;10.874;2023-08-01T07:28:40;5.83;;;3.20;;
9449;SDS011;4763;48.370;10.874;2023-08-01T07:31:07;3.27;;;2.53;;
9449;SDS011;4763;48.370;10.874;2023-08-01T07:33:34;5.30;;;3.17;;
9449;SDS011;4763;48.370;10.874;2023-08-01T07:36:01;8.07;;;2.83;;
9449;SDS011;4763;48.370;10.874;2023-08-01T07:38:28;5.80;;;3.17;;
9449;SDS011;4763;48.370;10.874;2023-08-01T07:41:01;4.07;;;2.83;;
9449;SDS011;4763;48.370;10.874;2023-08-01T07:43:29;6.63;;;3.30;;
9449;SDS011;4763;48.370;10.874;2023-08-01T07:45:56;6.20;;;3.07;;
9449;SDS011;4763;48.370;10.874;2023-08-01T07:48:23;4.97;;;2.60;;
9449;SDS011;4763;48.370;10.874;2023-08-01T07:50:50;5.77;;;2.97;;
9449;SDS011;4763;48.370;10.874;2023-08-01T07:53:17;4.70;;;2.83;;
9449;SDS011;4763;48.370;10.874;2023-08-01T07:55:44;5.03;;;3.30;;
9449;SDS011;4763;48.370;10.874;2023-08-01T07:58:12;5.40;;;2.80;;
9449;SDS011;4763;48.370;10.874;2023-08-01T08:00:39;4.80;;;3.20;;
9449;SDS011;4763;48.370;10.874;2023-08-01T08:03:05;7.37;;;3.50;;
9449;SDS011;4763;48.370;10.874;2023-08-01T08:05:35;4.13;;;3.40;;
9449;SDS011;4763;48.370;10.874;2023-08-01T08:08:03;5.30;;;2.73;;
9449;SDS011;4763;48.370;10.874;2023-08-01T08:10:31;4.83;;;2.97;;
9449;SDS011;4763;48.370;10.874;2023-08-01T08:12:57;4.13;;;3.13;;
9449;SDS011;4763;48.370;10.874;2023-08-01T08:15:26;7.13;;;4.37;;
9449;SDS011;4763;48.370;10.874;2023-08-01T08:17:55;5.77;;;3.20;;
9449;SDS011;4763;48.370;10.874;2023-08-01T08:20:22;5.47;;;2.70;;
9449;SDS011;4763;48.370;10.874;2023-08-01T08:22:49;6.60;;;2.83;;
9449;SDS011;4763;48.370;10.874;2023-08-01T08:25:16;4.40;;;2.93;;
9449;SDS011;4763;48.370;10.874;2023-08-01T08:27:42;3.50;;;2.33;;
9449;SDS011;4763;48.370;10.874;2023-08-01T08:30:09;4.57;;;2.70;;
9449;SDS011;4763;48.370;10.874;2023-08-01T08:32:38;4.73;;;3.33;;
9449;SDS011;4763;48.370;10.874;2023-08-01T08:35:05;4.30;;;2.90;;
9449;SDS011;4763;48.370;10.874;2023-08-01T08:37:32;3.37;;;2.57;;
9449;SDS011;4763;48.370;10.874;2023-08-01T08:39:59;4.83;;;3.20;;
9449;SDS011;4763;48.370;10.874;2023-08-01T08:42:25;5.70;;;2.93;;
9449;SDS011;4763;48.370;10.874;2023-08-01T08:44:54;3.93;;;2.43;;
9449;SDS011;4763;48.370;10.874;2023-08-01T08:49:52;3.70;;;2.53;;
9449;SDS011;4763;48.370;10.874;2023-08-01T08:52:22;3.93;;;2.77;;
9449;SDS011;4763;48.370;10.874;2023-08-01T08:54:50;3.60;;;2.25;;
9449;SDS011;4763;48.370;10.874;2023-08-01T08:57:18;6.73;;;2.97;;
9449;SDS011;4763;48.370;10.874;2023-08-01T08:59:48;5.30;;;2.75;;
9449;SDS011;4763;48.370;10.874;2023-08-01T09:02:16;5.63;;;2.50;;
9449;SDS011;4763;48.370;10.874;2023-08-01T09:04:43;4.53;;;2.55;;
9449;SDS011;4763;48.370;10.874;2023-08-01T09:07:12;4.88;;;2.50;;
9449;SDS011;4763;48.370;10.874;2023-08-01T09:09:41;4.57;;;2.40;;
9449;SDS011;4763;48.370;10.874;2023-08-01T09:12:08;4.05;;;2.53;;
9449;SDS011;4763;48.370;10.874;2023-08-01T09:14:35;5.18;;;2.72;;
9449;SDS011;4763;48.370;10.874;2023-08-01T09:17:05;5.47;;;2.53;;
9449;SDS011;4763;48.370;10.874;2023-08-01T09:19:34;5.78;;;2.67;;
9449;SDS011;4763;48.370;10.874;2023-08-01T09:22:01;3.95;;;2.33;;
9449;SDS011;4763;48.370;10.874;2023-08-01T09:24:29;6.35;;;2.58;;
9449;SDS011;4763;48.370;10.874;2023-08-01T09:27:03;3.08;;;2.55;;
9449;SDS011;4763;48.370;10.874;2023-08-01T09:29:31;3.60;;;2.60;;
9449;SDS011;4763;48.370;10.874;2023-08-01T09:31:57;4.68;;;2.28;;
9449;SDS011;4763;48.370;10.874;2023-08-01T09:34:25;3.55;;;2.50;;
9449;SDS011;4763;48.370;10.874;2023-08-01T09:36:57;3.97;;;2.80;;
9449;SDS011;4763;48.370;10.874;2023-08-01T09:39:25;4.20;;;2.67;;
9449;SDS011;4763;48.370;10.874;2023-08-01T09:41:57;4.80;;;2.65;;
9449;SDS011;4763;48.370;10.874;2023-08-01T09:44:27;4.25;;;2.22;;
9449;SDS011;4763;48.370;10.874;2023-08-01T09:46:57;4.60;;;2.20;;
9449;SDS011;4763;48.370;10.874;2023-08-01T09:49:26;4.40;;;2.63;;
9449;SDS011;4763;48.370;10.874;2023-08-01T09:51:53;4.95;;;2.20;;
9449;SDS011;4763;48.370;10.874;2023-08-01T09:54:21;6.13;;;2.10;;
9449;SDS011;4763;48.370;10.874;2023-08-01T09:56:49;3.77;;;2.80;;
9449;SDS011;4763;48.370;10.874;2023-08-01T09:59:19;3.70;;;2.73;;
9449;SDS011;4763;48.370;10.874;2023-08-01T10:01:48;5.77;;;2.87;;
9449;SDS011;4763;48.370;10.874;2023-08-01T10:04:17;5.10;;;2.83;;
9449;SDS011;4763;48.370;10.874;2023-08-01T10:06:46;2.93;;;2.40;;
9449;SDS011;4763;48.370;10.874;2023-08-01T10:09:15;4.87;;;2.97;;
9449;SDS011;4763;48.370;10.874;2023-08-01T10:11:43;4.43;;;2.43;;
9449;SDS011;4763;48.370;10.874;2023-08-01T10:14:10;4.00;;;2.43;;
9449;SDS011;4763;48.370;10.874;2023-08-01T10:16:39;3.00;;;2.60;;
9449;SDS011;4763;48.370;10.874;2023-08-01T10:19:07;5.80;;;2.80;;
9449;SDS011;4763;48.370;10.874;2023-08-01T10:21:37;4.33;;;2.50;;
9449;SDS011;4763;48.370;10.874;2023-08-01T10:24:04;4.83;;;3.00;;
9449;SDS011;4763;48.370;10.874;2023-08-01T10:26:32;2.93;;;2.47;;
9449;SDS011;4763;48.370;10.874;2023-08-01T10:29:00;5.13;;;2.30;;
9449;SDS011;4763;48.370;10.874;2023-08-01T10:31:27;4.17;;;2.60;;
9449;SDS011;4763;48.370;10.874;2023-08-01T10:34:03;4.97;;;2.60;;
9449;SDS011;4763;48.370;10.874;2023-08-01T10:36:31;4.93;;;3.13;;
9449;SDS011;4763;48.370;10.874;2023-08-01T10:38:59;3.10;;;2.47;;
9449;SDS011;4763;48.370;10.874;2023-08-01T10:41:28;3.13;;;2.57;;
9449;SDS011;4763;48.370;10.874;2023-08-01T10:44:08;4.20;;;2.67;;
9449;SDS011;4763;48.370;10.874;2023-08-01T10:46:46;6.30;;;2.60;;
9449;SDS011;4763;48.370;10.874;2023-08-01T10:49:15;3.77;;;2.40;;
9449;SDS011;4763;48.370;10.874;2023-08-01T10:51:42;3.63;;;2.67;;
9449;SDS011;4763;48.370;10.874;2023-08-01T10:54:19;3.13;;;2.50;;
9449;SDS011;4763;48.370;10.874;2023-08-01T10:56:47;4.77;;;2.63;;
9449;SDS011;4763;48.370;10.874;2023-08-01T10:59:15;2.97;;;2.23;;
9449;SDS011;4763;48.370;10.874;2023-08-01T11:01:44;5.53;;;2.53;;
9449;SDS011;4763;48.370;10.874;2023-08-01T11:04:19;3.23;;;2.37;;
9449;SDS011;4763;48.370;10.874;2023-08-01T11:06:47;3.80;;;2.00;;
9449;SDS011;4763;48.370;10.874;2023-08-01T11:09:16;2.67;;;2.10;;
9449;SDS011;4763;48.370;10.874;2023-08-01T11:11:44;3.27;;;2.03;;
9449;SDS011;4763;48.370;10.874;2023-08-01T11:14:11;3.27;;;2.17;;
9449;SDS011;4763;48.370;10.874;2023-08-01T11:16:39;4.23;;;2.10;;
9449;SDS011;4763;48.370;10.874;2023-08-01T11:19:16;2.97;;;1.90;;
9449;SDS011;4763;48.370;10.874;2023-08-01T11:21:46;3.10;;;1.90;;
9449;SDS011;4763;48.370;10.874;2023-08-01T11:24:13;2.83;;;1.90;;
9449;SDS011;4763;48.370;10.874;2023-08-01T11:26:40;3.50;;;2.13;;
9449;SDS011;4763;48.370;10.874;2023-08-01T11:29:08;3.33;;;2.03;;
9449;SDS011;4763;48.370;10.874;2023-08-01T11:31:35;3.27;;;1.77;;
9449;SDS011;4763;48.370;10.874;2023-08-01T11:34:02;3.70;;;1.77;;
9449;SDS011;4763;48.370;10.874;2023-08-01T11:36:30;2.83;;;1.77;;
9449;SDS011;4763;48.370;10.874;2023-08-01T11:38:58;2.70;;;2.33;;
9449;SDS011;4763;48.370;10.874;2023-08-01T11:41:26;3.57;;;1.80;;
9449;SDS011;4763;48.370;10.874;2023-08-01T11:43:53;2.67;;;1.83;;
9449;SDS011;4763;48.370;10.874;2023-08-01T11:46:21;3.07;;;2.00;;
9449;SDS011;4763;48.370;10.874;2023-08-01T11:48:48;3.93;;;2.27;;
9449;SDS011;4763;48.370;10.874;2023-08-01T11:51:16;3.17;;;1.97;;
9449;SDS011;4763;48.370;10.874;2023-08-01T11:53:44;4.20;;;2.30;;
9449;SDS011;4763;48.370;10.874;2023-08-01T11:56:19;2.80;;;2.20;;
9449;SDS011;4763;48.370;10.874;2023-08-01T11:58:47;3.33;;;1.97;;
9449;SDS011;4763;48.370;10.874;2023-08-01T12:01:15;3.10;;;2.00;;
9449;SDS011;4763;48.370;10.874;2023-08-01T12:03:46;3.60;;;2.27;;
9449;SDS011;4763;48.370;10.874;2023-08-01T12:06:14;4.20;;;2.00;;
9449;SDS011;4763;48.370;10.874;2023-08-01T12:08:42;3.93;;;2.50;;
9449;SDS011;4763;48.370;10.874;2023-08-01T12:11:17;3.90;;;2.40;;
9449;SDS011;4763;48.370;10.874;2023-08-01T12:13:45;6.27;;;2.53;;
9449;SDS011;4763;48.370;10.874;2023-08-01T12:16:14;2.50;;;1.70;;
9449;SDS011;4763;48.370;10.874;2023-08-01T12:18:45;2.87;;;2.13;;
9449;SDS011;4763;48.370;10.874;2023-08-01T12:21:12;3.93;;;2.43;;
9449;SDS011;4763;48.370;10.874;2023-08-01T12:23:39;8.83;;;2.10;;
9449;SDS011;4763;48.370;10.874;2023-08-01T12:26:09;3.70;;;2.10;;
9449;SDS011;4763;48.370;10.874;2023-08-01T12:28:36;3.90;;;2.10;;
9449;SDS011;4763;48.370;10.874;2023-08-01T12:31:03;3.73;;;2.10;;
9449;SDS011;4763;48.370;10.874;2023-08-01T12:33:30;4.80;;;2.50;;
9449;SDS011;4763;48.370;10.874;2023-08-01T12:35:59;4.13;;;2.40;;
9449;SDS011;4763;48.370;10.874;2023-08-01T12:38:26;4.30;;;2.00;;
9449;SDS011;4763;48.370;10.874;2023-08-01T12:40:53;2.73;;;2.00;;
9449;SDS011;4763;48.370;10.874;2023-08-01T12:43:24;3.27;;;2.27;;
9449;SDS011;4763;48.370;10.874;2023-08-01T12:45:50;3.63;;;2.30;;
9449;SDS011;4763;48.370;10.874;2023-08-01T12:48:17;3.47;;;2.17;;
9449;SDS011;4763;48.370;10.874;2023-08-01T12:50:44;6.03;;;2.13;;
9449;SDS011;4763;48.370;10.874;2023-08-01T12:53:13;2.07;;;1.50;;
9449;SDS011;4763;48.370;10.874;2023-08-01T12:55:42;3.87;;;1.67;;
9449;SDS011;4763;48.370;10.874;2023-08-01T12:58:09;3.07;;;2.00;;
9449;SDS011;4763;48.370;10.874;2023-08-01T13:00:38;2.40;;;1.63;;
9449;SDS011;4763;48.370;10.874;2023-08-01T13:03:06;3.27;;;2.07;;
9449;SDS011;4763;48.370;10.874;2023-08-01T13:05:37;2.60;;;1.70;;
9449;SDS011;4763;48.370;10.874;2023-08-01T13:08:05;1.90;;;1.50;;
9449;SDS011;4763;48.370;10.874;2023-08-01T13:10:32;3.90;;;1.97;;
9449;SDS011;4763;48.370;10.874;2023-08-01T13:12:59;2.77;;;1.90;;
9449;SDS011;4763;48.370;10.874;2023-08-01T13:15:28;2.23;;;1.70;;
9449;SDS011;4763;48.370;10.874;2023-08-01T13:17:57;4.27;;;1.80;;
9449;SDS011;4763;48.370;10.874;2023-08-01T13:20:24;2.63;;;1.60;;
9449;SDS011;4763;48.370;10.874;2023-08-01T13:22:51;2.87;;;1.73;;
9449;SDS011;4763;48.370;10.874;2023-08-01T13:25:18;3.40;;;1.80;;
9449;SDS011;4763;48.370;10.874;2023-08-01T13:27:45;2.43;;;1.60;;
9449;SDS011;4763;48.370;10.874;2023-08-01T13:30:12;2.83;;;2.10;;
9449;SDS011;4763;48.370;10.874;2023-08-01T13:32:39;2.60;;;1.73;;
9449;SDS011;4763;48.370;10.874;2023-08-01T13:35:08;3.10;;;2.47;;
9449;SDS011;4763;48.370;10.874;2023-08-01T13:37:34;3.53;;;2.13;;
9449;SDS011;4763;48.370;10.874;2023-08-01T13:40:02;2.20;;;1.70;;
9449;SDS011;4763;48.370;10.874;2023-08-01T13:42:30;2.30;;;1.83;;
9449;SDS011;4763;48.370;10.874;2023-08-01T13:44:57;2.03;;;1.40;;
9449;SDS011;4763;48.370;10.874;2023-08-01T13:47:25;2.77;;;1.60;;
9449;SDS011;4763;48.370;10.874;2023-08-01T13:49:52;1.83;;;1.40;;
9449;SDS011;4763;48.370;10.874;2023-08-01T13:52:20;1.20;;;1.10;;
9449;SDS011;4763;48.370;10.874;2023-08-01T13:54:46;3.30;;;1.03;;
9449;SDS011;4763;48.370;10.874;2023-08-01T13:57:13;0.97;;;0.90;;
9449;SDS011;4763;48.370;10.874;2023-08-01T13:59:40;1.17;;;1.07;;
9449;SDS011;4763;48.370;10.874;2023-08-01T14:02:07;2.37;;;0.80;;
9449;SDS011;4763;48.370;10.874;2023-08-01T14:04:33;2.05;;;0.88;;
9449;SDS011;4763;48.370;10.874;2023-08-01T14:07:00;1.55;;;0.90;;
9449;SDS011;4763;48.370;10.874;2023-08-01T14:09:29;2.80;;;1.20;;
9449;SDS011;4763;48.370;10.874;2023-08-01T14:11:57;1.55;;;1.02;;
9449;SDS011;4763;48.370;10.874;2023-08-01T14:14:24;1.30;;;1.00;;
9449;SDS011;4763;48.370;10.874;2023-08-01T14:16:51;1.27;;;0.90;;
9449;SDS011;4763;48.370;10.874;2023-08-01T14:19:17;3.38;;;0.80;;
9449;SDS011;4763;48.370;10.874;2023-08-01T14:21:44;1.77;;;1.30;;
9449;SDS011;4763;48.370;10.874;2023-08-01T14:24:11;1.63;;;0.70;;
9449;SDS011;4763;48.370;10.874;2023-08-01T14:26:39;1.50;;;0.82;;
9449;SDS011;4763;48.370;10.874;2023-08-01T14:29:06;1.20;;;0.80;;
9449;SDS011;4763;48.370;10.874;2023-08-01T14:31:33;5.53;;;1.02;;
9449;SDS011;4763;48.370;10.874;2023-08-01T14:34:00;1.23;;;1.00;;
9449;SDS011;4763;48.370;10.874;2023-08-01T14:36:26;3.40;;;1.25;;
9449;SDS011;4763;48.370;10.874;2023-08-01T14:38:54;1.60;;;1.17;;
9449;SDS011;4763;48.370;10.874;2023-08-01T14:41:21;3.42;;;1.45;;
9449;SDS011;4763;48.370;10.874;2023-08-01T14:43:50;1.73;;;1.10;;
9449;SDS011;4763;48.370;10.874;2023-08-01T14:46:18;1.35;;;1.10;;
9449;SDS011;4763;48.370;10.874;2023-08-01T14:48:45;2.10;;;1.20;;
9449;SDS011;4763;48.370;10.874;2023-08-01T14:51:12;1.98;;;1.13;;
9449;SDS011;4763;48.370;10.874;2023-08-01T14:53:38;1.90;;;1.17;;
9449;SDS011;4763;48.370;10.874;2023-08-01T14:56:05;3.85;;;1.50;;
9449;SDS011;4763;48.370;10.874;2023-08-01T14:58:33;1.08;;;1.00;;
9449;SDS011;4763;48.370;10.874;2023-08-01T15:01:12;1.42;;;1.08;;
9449;SDS011;4763;48.370;10.874;2023-08-01T15:03:39;3.47;;;1.45;;
9449;SDS011;4763;48.370;10.874;2023-08-01T15:06:06;1.60;;;1.00;;